sensor_id;sensor_type;location;lat;lon;timestamp;pressure;altitude;pressure_sealevel;temperature;humidity
77631;BME280;66798;47.370;8.552;2023-08-17T00:01:26;96736.94;;;23.37;55.44
77631;BME280;66798;47.370;8.552;2023-08-17T00:03:52;96734.78;;;23.27;56.30
77631;BME280;66798;47.370;8.552;2023-08-17T00:06:17;96745.16;;;23.28;56.88
77631;BME280;66798;47.370;8.552;2023-08-17T00:08:42;96741.69;;;23.28;55.63
77631;BME280;66798;47.370;8.552;2023-08-17T00:11:08;96740.16;;;23.27;56.74
77631;BME280;66798;47.370;8.552;2023-08-17T00:13:34;96747.34;;;23.39;55.95
77631;BME280;66798;47.370;8.552;2023-08-17T00:15:59;96744.56;;;23.35;55.13
77631;BME280;66798;47.370;8.552;2023-08-17T00:18:25;96750.63;;;23.32;56.38
77631;BME280;66798;47.370;8.552;2023-08-17T00:20:50;96746.28;;;23.27;56.33
77631;BME280;66798;47.370;8.552;2023-08-17T00:23:16;96752.53;;;23.31;56.42
77631;BME280;66798;47.370;8.552;2023-08-17T00:25:41;96739.78;;;23.28;57.08
77631;BME280;66798;47.370;8.552;2023-08-17T00:28:07;96750.13;;;23.26;56.77
77631;BME280;66798;47.370;8.552;2023-08-17T00:30:32;96749.13;;;23.19;56.99
77631;BME280;66798;47.370;8.552;2023-08-17T00:33:01;96748.28;;;23.15;56.13
77631;BME280;66798;47.370;8.552;2023-08-17T00:35:27;96747.16;;;23.16;55.87
77631;BME280;66798;47.370;8.552;2023-08-17T00:37:53;96745.06;;;23.09;56.65
77631;BME280;66798;47.370;8.552;2023-08-17T00:40:18;96747.31;;;23.07;56.58
77631;BME280;66798;47.370;8.552;2023-08-17T00:42:44;96751.00;;;23.02;56.80
77631;BME280;66798;47.370;8.552;2023-08-17T00:45:09;96748.38;;;22.90;56.44
77631;BME280;66798;47.370;8.552;2023-08-17T00:47:35;96750.59;;;22.88;56.93
77631;BME280;66798;47.370;8.552;2023-08-17T00:50:01;96742.16;;;22.86;56.57
77631;BME280;66798;47.370;8.552;2023-08-17T00:52:26;96750.38;;;22.93;56.29
77631;BME280;66798;47.370;8.552;2023-08-17T00:54:52;96741.63;;;22.96;56.16
77631;BME280;66798;47.370;8.552;2023-08-17T00:57:19;96740.25;;;22.86;57.91
77631;BME280;66798;47.370;8.552;2023-08-17T00:59:46;96747.41;;;22.82;58.16
77631;BME280;66798;47.370;8.552;2023-08-17T01:02:12;96745.50;;;22.83;58.33
77631;BME280;66798;47.370;8.552;2023-08-17T01:04:37;96743.06;;;22.78;57.89
77631;BME280;66798;47.370;8.552;2023-08-17T01:07:02;96738.19;;;22.67;58.23
77631;BME280;66798;47.370;8.552;2023-08-17T01:09:28;96747.34;;;22.66;58.81
77631;BME280;66798;47.370;8.552;2023-08-17T01:12:24;96752.97;;;22.61;59.26
77631;BME280;66798;47.370;8.552;2023-08-17T01:15:04;96753.66;;;22.58;59.72
77631;BME280;66798;47.370;8.552;2023-08-17T01:17:40;96746.63;;;22.54;59.30
77631;BME280;66798;47.370;8.552;2023-08-17T01:20:08;96759.59;;;22.52;59.33
77631;BME280;66798;47.370;8.552;2023-08-17T01:22:35;96755.81;;;22.53;59.91
77631;BME280;66798;47.370;8.552;2023-08-17T01:25:02;96754.34;;;22.55;59.19
77631;BME280;66798;47.370;8.552;2023-08-17T01:27:40;96749.75;;;22.56;58.86
77631;BME280;66798;47.370;8.552;2023-08-17T01:30:07;96748.84;;;22.52;59.00
77631;BME280;66798;47.370;8.552;2023-08-17T01:38:12;96745.75;;;22.50;58.71
77631;BME280;66798;47.370;8.552;2023-08-17T01:40:39;96745.97;;;22.44;58.71
77631;BME280;66798;47.370;8.552;2023-08-17T01:43:06;96748.13;;;22.39;59.08
77631;BME280;66798;47.370;8.552;2023-08-17T01:45:32;96748.00;;;22.35;59.33
77631;BME280;66798;47.370;8.552;2023-08-17T01:47:57;96752.28;;;22.36;59.14
77631;BME280;66798;47.370;8.552;2023-08-17T01:50:23;96754.94;;;22.36;59.12
77631;BME280;66798;47.370;8.552;2023-08-17T01:52:48;96757.97;;;22.35;60.13
77631;BME280;66798;47.370;8.552;2023-08-17T01:55:16;96759.41;;;22.32;59.74
77631;BME280;66798;47.370;8.552;2023-08-17T01:57:41;96760.97;;;22.33;60.14
77631;BME280;66798;47.370;8.552;2023-08-17T02:00:07;96759.75;;;22.31;59.54
77631;BME280;66798;47.370;8.552;2023-08-17T02:02:36;96755.97;;;22.32;59.82
77631;BME280;66798;47.370;8.552;2023-08-17T02:05:01;96750.50;;;22.28;59.54
77631;BME280;66798;47.370;8.552;2023-08-17T02:07:27;96754.97;;;22.24;59.63
77631;BME280;66798;47.370;8.552;2023-08-17T02:09:52;96749.72;;;22.27;59.79
77631;BME280;66798;47.370;8.552;2023-08-17T02:12:18;96754.31;;;22.27;60.68
77631;BME280;66798;47.370;8.552;2023-08-17T02:14:43;96756.53;;;22.25;60.67
77631;BME280;66798;47.370;8.552;2023-08-17T02:17:08;96751.50;;;22.23;60.74
77631;BME280;66798;47.370;8.552;2023-08-17T02:19:34;96752.84;;;22.30;60.77
77631;BME280;66798;47.370;8.552;2023-08-17T02:22:00;96750.72;;;22.23;60.23
77631;BME280;66798;47.370;8.552;2023-08-17T02:24:25;96747.13;;;22.19;60.53
77631;BME280;66798;47.370;8.552;2023-08-17T02:26:51;96752.19;;;22.20;60.32
77631;BME280;66798;47.370;8.552;2023-08-17T02:29:16;96755.63;;;22.21;59.96
77631;BME280;66798;47.370;8.552;2023-08-17T02:31:42;96759.53;;;22.23;60.09
77631;BME280;66798;47.370;8.552;2023-08-17T02:34:07;96750.16;;;22.17;60.80
77631;BME280;66798;47.370;8.552;2023-08-17T02:36:33;96753.94;;;22.16;60.57
77631;BME280;66798;47.370;8.552;2023-08-17T02:38:59;96750.50;;;22.16;60.99
77631;BME280;66798;47.370;8.552;2023-08-17T02:41:24;96747.34;;;22.14;61.17
77631;BME280;66798;47.370;8.552;2023-08-17T02:43:50;96753.84;;;22.13;61.14
77631;BME280;66798;47.370;8.552;2023-08-17T02:46:15;96740.00;;;22.11;61.06
77631;BME280;66798;47.370;8.552;2023-08-17T02:48:40;96745.25;;;22.07;61.85
77631;BME280;66798;47.370;8.552;2023-08-17T02:51:06;96743.50;;;21.99;61.74
77631;BME280;66798;47.370;8.552;2023-08-17T02:53:32;96741.69;;;22.03;61.28
77631;BME280;66798;47.370;8.552;2023-08-17T02:55:57;96744.16;;;22.08;61.00
77631;BME280;66798;47.370;8.552;2023-08-17T02:58:22;96743.59;;;22.02;61.00
77631;BME280;66798;47.370;8.552;2023-08-17T03:00:51;96747.06;;;21.91;61.83
77631;BME280;66798;47.370;8.552;2023-08-17T03:03:16;96743.81;;;21.97;62.12
77631;BME280;66798;47.370;8.552;2023-08-17T03:05:41;96742.81;;;22.02;61.26
77631;BME280;66798;47.370;8.552;2023-08-17T03:08:07;96740.25;;;22.05;61.77
77631;BME280;66798;47.370;8.552;2023-08-17T03:10:32;96735.56;;;22.02;61.53
77631;BME280;66798;47.370;8.552;2023-08-17T03:12:58;96736.78;;;21.93;61.35
77631;BME280;66798;47.370;8.552;2023-08-17T03:15:23;96733.25;;;21.76;62.19
77631;BME280;66798;47.370;8.552;2023-08-17T03:17:49;96732.25;;;21.81;61.96
77631;BME280;66798;47.370;8.552;2023-08-17T03:20:14;96729.66;;;21.84;61.81
77631;BME280;66798;47.370;8.552;2023-08-17T03:22:39;96731.44;;;21.80;62.94
77631;BME280;66798;47.370;8.552;2023-08-17T03:25:05;96727.66;;;21.81;62.65
77631;BME280;66798;47.370;8.552;2023-08-17T03:27:31;96729.44;;;21.90;61.88
77631;BME280;66798;47.370;8.552;2023-08-17T03:29:56;96727.09;;;21.88;61.92
77631;BME280;66798;47.370;8.552;2023-08-17T03:32:22;96729.78;;;21.88;62.12
77631;BME280;66798;47.370;8.552;2023-08-17T03:34:47;96727.53;;;21.78;61.90
77631;BME280;66798;47.370;8.552;2023-08-17T03:37:13;96735.25;;;21.79;62.21
77631;BME280;66798;47.370;8.552;2023-08-17T03:39:38;96732.34;;;21.84;62.17
77631;BME280;66798;47.370;8.552;2023-08-17T03:42:04;96728.22;;;21.87;61.81
77631;BME280;66798;47.370;8.552;2023-08-17T03:44:29;96727.22;;;21.79;62.96
77631;BME280;66798;47.370;8.552;2023-08-17T03:46:55;96732.03;;;21.74;62.93
77631;BME280;66798;47.370;8.552;2023-08-17T03:49:20;96734.81;;;21.65;62.15
77631;BME280;66798;47.370;8.552;2023-08-17T03:51:45;96729.22;;;21.58;61.89
77631;BME280;66798;47.370;8.552;2023-08-17T03:54:12;96730.13;;;21.62;62.05
77631;BME280;66798;47.370;8.552;2023-08-17T03:56:37;96731.69;;;21.63;61.97
77631;BME280;66798;47.370;8.552;2023-08-17T03:59:03;96734.22;;;21.59;61.98
77631;BME280;66798;47.370;8.552;2023-08-17T04:01:29;96737.59;;;21.56;61.93
77631;BME280;66798;47.370;8.552;2023-08-17T04:03:54;96742.03;;;21.52;62.00
77631;BME280;66798;47.370;8.552;2023-08-17T04:06:20;96745.97;;;21.55;62.42
77631;BME280;66798;47.370;8.552;2023-08-17T04:08:45;96743.16;;;21.51;61.97
77631;BME280;66798;47.370;8.552;2023-08-17T04:11:11;96735.69;;;21.45;62.61
77631;BME280;66798;47.370;8.552;2023-08-17T04:13:36;96745.03;;;21.38;62.92
77631;BME280;66798;47.370;8.552;2023-08-17T04:16:02;96739.03;;;21.41;62.36
77631;BME280;66798;47.370;8.552;2023-08-17T04:18:27;96742.84;;;21.53;61.99
77631;BME280;66798;47.370;8.552;2023-08-17T04:20:54;96747.97;;;21.46;62.84
77631;BME280;66798;47.370;8.552;2023-08-17T04:23:19;96731.22;;;21.49;62.81
77631;BME280;66798;47.370;8.552;2023-08-17T04:25:46;96748.53;;;21.51;62.58
77631;BME280;66798;47.370;8.552;2023-08-17T04:28:12;96740.25;;;21.44;63.31
77631;BME280;66798;47.370;8.552;2023-08-17T04:30:38;96750.16;;;21.31;63.45
77631;BME280;66798;47.370;8.552;2023-08-17T04:33:04;96742.91;;;21.32;63.57
77631;BME280;66798;47.370;8.552;2023-08-17T04:35:29;96748.34;;;21.35;62.98
77631;BME280;66798;47.370;8.552;2023-08-17T04:37:55;96744.22;;;21.38;62.80
77631;BME280;66798;47.370;8.552;2023-08-17T04:40:20;96749.75;;;21.41;62.79
77631;BME280;66798;47.370;8.552;2023-08-17T04:42:46;96750.38;;;21.38;63.03
77631;BME280;66798;47.370;8.552;2023-08-17T04:45:11;96749.69;;;21.29;62.99
77631;BME280;66798;47.370;8.552;2023-08-17T04:47:38;96748.34;;;21.35;63.30
77631;BME280;66798;47.370;8.552;2023-08-17T04:50:04;96743.44;;;21.37;62.88
77631;BME280;66798;47.370;8.552;2023-08-17T04:52:29;96750.88;;;21.40;63.02
77631;BME280;66798;47.370;8.552;2023-08-17T04:54:55;96753.19;;;21.42;63.32
77631;BME280;66798;47.370;8.552;2023-08-17T04:57:20;96758.91;;;21.40;63.64
77631;BME280;66798;47.370;8.552;2023-08-17T04:59:46;96753.88;;;21.51;62.83
77631;BME280;66798;47.370;8.552;2023-08-17T05:02:11;96756.56;;;21.51;62.82
77631;BME280;66798;47.370;8.552;2023-08-17T05:04:36;96759.13;;;21.48;63.24
77631;BME280;66798;47.370;8.552;2023-08-17T05:07:02;96763.22;;;21.45;63.15
77631;BME280;66798;47.370;8.552;2023-08-17T05:09:27;96761.81;;;21.48;63.35
77631;BME280;66798;47.370;8.552;2023-08-17T05:11:53;96768.38;;;21.50;64.35
77631;BME280;66798;47.370;8.552;2023-08-17T05:14:18;96760.69;;;21.49;63.70
77631;BME280;66798;47.370;8.552;2023-08-17T05:16:44;96757.78;;;21.41;63.95
77631;BME280;66798;47.370;8.552;2023-08-17T05:19:09;96761.34;;;21.58;63.48
77631;BME280;66798;47.370;8.552;2023-08-17T05:21:35;96768.63;;;21.70;63.63
77631;BME280;66798;47.370;8.552;2023-08-17T05:24:01;96763.47;;;21.77;62.97
77631;BME280;66798;47.370;8.552;2023-08-17T05:26:26;96767.06;;;21.81;63.24
77631;BME280;66798;47.370;8.552;2023-08-17T05:28:52;96768.38;;;21.99;62.52
77631;BME280;66798;47.370;8.552;2023-08-17T05:31:17;96771.91;;;22.16;62.64
77631;BME280;66798;47.370;8.552;2023-08-17T05:33:42;96770.34;;;22.39;62.58
77631;BME280;66798;47.370;8.552;2023-08-17T05:36:08;96771.97;;;22.56;62.15
77631;BME280;66798;47.370;8.552;2023-08-17T05:38:33;96767.44;;;22.73;62.86
77631;BME280;66798;47.370;8.552;2023-08-17T05:40:59;96772.50;;;22.90;61.48
77631;BME280;66798;47.370;8.552;2023-08-17T05:43:25;96776.16;;;23.10;61.08
77631;BME280;66798;47.370;8.552;2023-08-17T05:45:51;96773.75;;;23.37;61.16
77631;BME280;66798;47.370;8.552;2023-08-17T05:48:19;96774.72;;;23.44;58.97
77631;BME280;66798;47.370;8.552;2023-08-17T05:50:46;96771.50;;;23.54;59.84
77631;BME280;66798;47.370;8.552;2023-08-17T05:53:12;96784.31;;;23.61;59.05
77631;BME280;66798;47.370;8.552;2023-08-17T05:55:37;96777.75;;;23.59;58.67
77631;BME280;66798;47.370;8.552;2023-08-17T05:58:03;96785.28;;;23.53;59.78
77631;BME280;66798;47.370;8.552;2023-08-17T06:00:29;96775.84;;;23.43;60.60
77631;BME280;66798;47.370;8.552;2023-08-17T06:02:55;96776.63;;;23.44;60.37
77631;BME280;66798;47.370;8.552;2023-08-17T06:05:26;96782.69;;;23.41;60.90
77631;BME280;66798;47.370;8.552;2023-08-17T06:07:52;96783.78;;;23.40;61.00
77631;BME280;66798;47.370;8.552;2023-08-17T06:10:17;96779.75;;;23.46;61.82
77631;BME280;66798;47.370;8.552;2023-08-17T06:12:43;96788.47;;;23.59;61.44
77631;BME280;66798;47.370;8.552;2023-08-17T06:15:08;96786.59;;;23.75;60.01
77631;BME280;66798;47.370;8.552;2023-08-17T06:17:34;96785.56;;;23.95;59.86
77631;BME280;66798;47.370;8.552;2023-08-17T06:20:00;96787.13;;;24.32;59.44
77631;BME280;66798;47.370;8.552;2023-08-17T06:22:25;96789.81;;;24.67;58.23
77631;BME280;66798;47.370;8.552;2023-08-17T06:24:50;96786.72;;;24.88;57.25
77631;BME280;66798;47.370;8.552;2023-08-17T06:27:16;96775.47;;;25.21;56.25
77631;BME280;66798;47.370;8.552;2023-08-17T06:29:41;96777.28;;;25.60;55.71
77631;BME280;66798;47.370;8.552;2023-08-17T06:32:07;96780.97;;;25.75;55.94
77631;BME280;66798;47.370;8.552;2023-08-17T06:34:33;96780.50;;;25.92;54.44
77631;BME280;66798;47.370;8.552;2023-08-17T06:37:01;96775.28;;;26.03;54.64
77631;BME280;66798;47.370;8.552;2023-08-17T06:39:27;96780.34;;;25.85;52.82
77631;BME280;66798;47.370;8.552;2023-08-17T06:41:53;96777.13;;;25.99;52.68
77631;BME280;66798;47.370;8.552;2023-08-17T06:44:19;96771.94;;;26.13;52.41
77631;BME280;66798;47.370;8.552;2023-08-17T06:46:45;96779.88;;;26.02;52.38
77631;BME280;66798;47.370;8.552;2023-08-17T06:49:12;96776.94;;;26.15;53.12
77631;BME280;66798;47.370;8.552;2023-08-17T06:51:38;96777.88;;;26.26;51.77
77631;BME280;66798;47.370;8.552;2023-08-17T06:54:04;96783.25;;;26.22;52.09
77631;BME280;66798;47.370;8.552;2023-08-17T06:56:30;96779.91;;;26.33;50.01
77631;BME280;66798;47.370;8.552;2023-08-17T06:58:56;96787.41;;;26.46;51.16
77631;BME280;66798;47.370;8.552;2023-08-17T07:01:21;96792.63;;;26.62;50.73
77631;BME280;66798;47.370;8.552;2023-08-17T07:03:47;96790.59;;;26.86;51.03
77631;BME280;66798;47.370;8.552;2023-08-17T07:06:13;96791.75;;;26.85;50.58
77631;BME280;66798;47.370;8.552;2023-08-17T07:08:38;96789.56;;;26.94;49.06
77631;BME280;66798;47.370;8.552;2023-08-17T07:11:04;96794.97;;;26.98;48.62
77631;BME280;66798;47.370;8.552;2023-08-17T07:13:31;96796.38;;;27.18;49.51
77631;BME280;66798;47.370;8.552;2023-08-17T07:15:56;96788.22;;;27.52;47.99
77631;BME280;66798;47.370;8.552;2023-08-17T07:18:21;96794.72;;;27.44;47.51
77631;BME280;66798;47.370;8.552;2023-08-17T07:20:47;96788.56;;;27.47;49.21
77631;BME280;66798;47.370;8.552;2023-08-17T07:23:12;96794.28;;;27.83;49.27
77631;BME280;66798;47.370;8.552;2023-08-17T07:25:38;96795.16;;;27.98;48.39
77631;BME280;66798;47.370;8.552;2023-08-17T07:28:04;96797.16;;;28.08;48.42
77631;BME280;66798;47.370;8.552;2023-08-17T07:30:29;96796.28;;;27.93;48.74
77631;BME280;66798;47.370;8.552;2023-08-17T07:32:55;96797.94;;;28.08;48.67
77631;BME280;66798;47.370;8.552;2023-08-17T07:35:20;96786.13;;;28.38;47.56
77631;BME280;66798;47.370;8.552;2023-08-17T07:37:45;96793.13;;;28.43;46.95
77631;BME280;66798;47.370;8.552;2023-08-17T07:40:11;96787.84;;;28.61;46.59
77631;BME280;66798;47.370;8.552;2023-08-17T07:42:36;96796.00;;;28.75;44.82
77631;BME280;66798;47.370;8.552;2023-08-17T07:45:02;96798.22;;;28.55;45.60
77631;BME280;66798;47.370;8.552;2023-08-17T07:47:31;96792.91;;;28.73;46.49
77631;BME280;66798;47.370;8.552;2023-08-17T07:49:56;96792.19;;;28.97;46.97
77631;BME280;66798;47.370;8.552;2023-08-17T07:52:23;96791.47;;;29.08;45.40
77631;BME280;66798;47.370;8.552;2023-08-17T07:54:48;96799.25;;;29.16;45.14
77631;BME280;66798;47.370;8.552;2023-08-17T07:57:14;96795.81;;;29.55;45.31
77631;BME280;66798;47.370;8.552;2023-08-17T07:59:39;96802.81;;;29.74;44.67
77631;BME280;66798;47.370;8.552;2023-08-17T08:02:05;96802.03;;;29.88;43.78
77631;BME280;66798;47.370;8.552;2023-08-17T08:04:30;96809.78;;;29.86;43.47
77631;BME280;66798;47.370;8.552;2023-08-17T08:06:56;96807.06;;;30.04;42.62
77631;BME280;66798;47.370;8.552;2023-08-17T08:09:21;96814.75;;;30.48;43.11
77631;BME280;66798;47.370;8.552;2023-08-17T08:11:47;96815.06;;;30.76;43.02
77631;BME280;66798;47.370;8.552;2023-08-17T08:14:12;96815.78;;;30.94;42.07
77631;BME280;66798;47.370;8.552;2023-08-17T08:16:37;96822.41;;;30.86;40.75
77631;BME280;66798;47.370;8.552;2023-08-17T08:19:03;96818.09;;;30.96;41.11
77631;BME280;66798;47.370;8.552;2023-08-17T08:21:28;96810.78;;;30.75;41.73
77631;BME280;66798;47.370;8.552;2023-08-17T08:23:54;96819.22;;;31.09;42.10
77631;BME280;66798;47.370;8.552;2023-08-17T08:26:19;96822.69;;;31.09;40.62
77631;BME280;66798;47.370;8.552;2023-08-17T08:28:45;96819.66;;;30.93;40.81
77631;BME280;66798;47.370;8.552;2023-08-17T08:31:10;96824.09;;;30.33;42.11
77631;BME280;66798;47.370;8.552;2023-08-17T08:33:36;96813.88;;;30.77;41.99
77631;BME280;66798;47.370;8.552;2023-08-17T08:36:01;96818.09;;;30.96;41.85
77631;BME280;66798;47.370;8.552;2023-08-17T08:38:27;96821.25;;;30.80;40.22
77631;BME280;66798;47.370;8.552;2023-08-17T08:40:52;96817.41;;;30.70;40.77
77631;BME280;66798;47.370;8.552;2023-08-17T08:43:18;96818.97;;;30.71;41.35
77631;BME280;66798;47.370;8.552;2023-08-17T08:45:45;96825.13;;;30.86;40.89
77631;BME280;66798;47.370;8.552;2023-08-17T08:48:13;96827.75;;;31.11;41.34
77631;BME280;66798;47.370;8.552;2023-08-17T08:50:40;96830.31;;;31.40;41.28
77631;BME280;66798;47.370;8.552;2023-08-17T08:53:15;96836.53;;;31.40;41.01
77631;BME280;66798;47.370;8.552;2023-08-17T08:55:50;96831.00;;;31.51;40.30
77631;BME280;66798;47.370;8.552;2023-08-17T08:58:17;96829.97;;;31.86;40.83
77631;BME280;66798;47.370;8.552;2023-08-17T09:00:46;96829.88;;;32.04;39.40
77631;BME280;66798;47.370;8.552;2023-08-17T09:03:12;96826.38;;;32.04;39.50
77631;BME280;66798;47.370;8.552;2023-08-17T09:05:39;96828.03;;;32.32;40.39
77631;BME280;66798;47.370;8.552;2023-08-17T09:08:08;96826.94;;;32.26;40.99
77631;BME280;66798;47.370;8.552;2023-08-17T09:10:35;96821.13;;;32.24;39.43
77631;BME280;66798;47.370;8.552;2023-08-17T09:13:00;96824.41;;;32.04;40.22
77631;BME280;66798;47.370;8.552;2023-08-17T09:15:26;96823.28;;;31.98;41.23
77631;BME280;66798;47.370;8.552;2023-08-17T09:17:51;96819.69;;;32.12;41.17
77631;BME280;66798;47.370;8.552;2023-08-17T09:20:39;96819.59;;;32.23;41.00
77631;BME280;66798;47.370;8.552;2023-08-17T09:23:13;96822.50;;;32.77;40.90
77631;BME280;66798;47.370;8.552;2023-08-17T09:25:41;96820.72;;;32.97;39.80
77631;BME280;66798;47.370;8.552;2023-08-17T09:28:11;96817.47;;;33.10;39.67
77631;BME280;66798;47.370;8.552;2023-08-17T09:33:16;96822.63;;;33.31;39.08
77631;BME280;66798;47.370;8.552;2023-08-17T09:35:42;96826.03;;;33.66;39.03
77631;BME280;66798;47.370;8.552;2023-08-17T09:38:07;96818.25;;;33.65;38.73
77631;BME280;66798;47.370;8.552;2023-08-17T09:40:33;96812.94;;;33.27;39.08
77631;BME280;66798;47.370;8.552;2023-08-17T09:42:58;96823.84;;;33.54;38.30
77631;BME280;66798;47.370;8.552;2023-08-17T09:45:25;96817.72;;;33.19;38.01
77631;BME280;66798;47.370;8.552;2023-08-17T09:47:52;96816.38;;;33.31;38.60
77631;BME280;66798;47.370;8.552;2023-08-17T09:50:22;96821.25;;;32.85;39.26
77631;BME280;66798;47.370;8.552;2023-08-17T09:52:52;96828.16;;;32.21;38.73
77631;BME280;66798;47.370;8.552;2023-08-17T09:55:21;96825.59;;;32.45;39.39
77631;BME280;66798;47.370;8.552;2023-08-17T09:57:49;96831.78;;;32.07;40.83
77631;BME280;66798;47.370;8.552;2023-08-17T10:00:16;96821.16;;;31.71;40.20
77631;BME280;66798;47.370;8.552;2023-08-17T10:02:44;96826.53;;;31.79;40.47
77631;BME280;66798;47.370;8.552;2023-08-17T10:05:11;96834.19;;;31.39;42.29
77631;BME280;66798;47.370;8.552;2023-08-17T10:07:42;96827.53;;;32.03;42.32
77631;BME280;66798;47.370;8.552;2023-08-17T10:10:09;96826.44;;;31.97;41.01
77631;BME280;66798;47.370;8.552;2023-08-17T10:12:45;96829.84;;;31.52;41.47
77631;BME280;66798;47.370;8.552;2023-08-17T10:15:15;96831.88;;;31.93;41.32
77631;BME280;66798;47.370;8.552;2023-08-17T10:17:55;96829.03;;;32.49;40.04
77631;BME280;66798;47.370;8.552;2023-08-17T10:20:26;96821.63;;;32.87;40.94
77631;BME280;66798;47.370;8.552;2023-08-17T10:23:05;96819.63;;;33.22;41.14
77631;BME280;66798;47.370;8.552;2023-08-17T10:25:34;96815.53;;;33.65;38.64
77631;BME280;66798;47.370;8.552;2023-08-17T10:28:01;96807.16;;;33.48;38.15
77631;BME280;66798;47.370;8.552;2023-08-17T10:30:29;96811.78;;;33.51;38.64
77631;BME280;66798;47.370;8.552;2023-08-17T10:32:55;96803.44;;;33.11;37.40
77631;BME280;66798;47.370;8.552;2023-08-17T10:35:22;96808.38;;;33.47;38.93
77631;BME280;66798;47.370;8.552;2023-08-17T10:37:48;96801.66;;;32.94;38.37
77631;BME280;66798;47.370;8.552;2023-08-17T10:40:14;96801.56;;;33.01;38.50
77631;BME280;66798;47.370;8.552;2023-08-17T10:42:40;96805.56;;;33.51;37.71
77631;BME280;66798;47.370;8.552;2023-08-17T10:45:28;96796.78;;;33.90;36.70
77631;BME280;66798;47.370;8.552;2023-08-17T10:50:31;96800.16;;;33.98;35.10
77631;BME280;66798;47.370;8.552;2023-08-17T10:52:58;96789.53;;;34.03;34.74
77631;BME280;66798;47.370;8.552;2023-08-17T10:55:47;96801.22;;;34.04;35.26
77631;BME280;66798;47.370;8.552;2023-08-17T10:58:17;96790.31;;;34.04;33.80
77631;BME280;66798;47.370;8.552;2023-08-17T11:00:43;96794.50;;;33.34;33.41
77631;BME280;66798;47.370;8.552;2023-08-17T11:03:17;96796.16;;;33.55;34.68
77631;BME280;66798;47.370;8.552;2023-08-17T11:05:49;96790.72;;;33.79;33.92
77631;BME280;66798;47.370;8.552;2023-08-17T11:08:30;96788.84;;;34.23;34.94
77631;BME280;66798;47.370;8.552;2023-08-17T11:10:58;96783.00;;;34.21;34.31
77631;BME280;66798;47.370;8.552;2023-08-17T11:13:27;96780.00;;;34.35;34.12
77631;BME280;66798;47.370;8.552;2023-08-17T11:15:54;96781.47;;;33.96;33.21
77631;BME280;66798;47.370;8.552;2023-08-17T11:18:19;96778.28;;;33.78;34.07
77631;BME280;66798;47.370;8.552;2023-08-17T11:20:45;96777.91;;;33.99;34.70
77631;BME280;66798;47.370;8.552;2023-08-17T11:23:10;96779.03;;;34.02;33.98
77631;BME280;66798;47.370;8.552;2023-08-17T11:25:37;96775.00;;;33.63;33.73
77631;BME280;66798;47.370;8.552;2023-08-17T11:28:03;96777.03;;;33.32;33.57
77631;BME280;66798;47.370;8.552;2023-08-17T11:30:29;96783.28;;;33.56;33.54
77631;BME280;66798;47.370;8.552;2023-08-17T11:32:56;96779.22;;;33.40;34.61
77631;BME280;66798;47.370;8.552;2023-08-17T11:35:21;96779.97;;;33.45;33.92
77631;BME280;66798;47.370;8.552;2023-08-17T11:37:48;96781.81;;;33.24;34.28
77631;BME280;66798;47.370;8.552;2023-08-17T11:40:15;96769.66;;;33.02;33.70
77631;BME280;66798;47.370;8.552;2023-08-17T11:42:42;96772.66;;;32.80;34.56
77631;BME280;66798;47.370;8.552;2023-08-17T11:45:08;96776.13;;;32.50;35.18
77631;BME280;66798;47.370;8.552;2023-08-17T11:47:41;96774.31;;;32.36;36.61
77631;BME280;66798;47.370;8.552;2023-08-17T11:50:12;96768.63;;;32.23;35.54
77631;BME280;66798;47.370;8.552;2023-08-17T11:52:38;96767.22;;;32.08;36.57
77631;BME280;66798;47.370;8.552;2023-08-17T11:55:08;96771.13;;;32.07;36.72
77631;BME280;66798;47.370;8.552;2023-08-17T11:57:37;96765.75;;;32.00;37.93
77631;BME280;66798;47.370;8.552;2023-08-17T12:00:04;96768.41;;;32.07;37.61
77631;BME280;66798;47.370;8.552;2023-08-17T12:02:35;96764.25;;;31.91;38.58
77631;BME280;66798;47.370;8.552;2023-08-17T12:05:03;96765.81;;;31.89;37.92
77631;BME280;66798;47.370;8.552;2023-08-17T12:07:32;96759.97;;;31.90;38.35
77631;BME280;66798;47.370;8.552;2023-08-17T12:09:57;96761.13;;;31.97;37.75
77631;BME280;66798;47.370;8.552;2023-08-17T12:12:23;96759.69;;;31.81;37.61
77631;BME280;66798;47.370;8.552;2023-08-17T12:14:49;96756.50;;;31.86;37.70
77631;BME280;66798;47.370;8.552;2023-08-17T12:17:18;96754.56;;;31.87;37.01
77631;BME280;66798;47.370;8.552;2023-08-17T12:19:48;96782.13;;;31.92;37.45
77631;BME280;66798;47.370;8.552;2023-08-17T12:22:14;96778.38;;;31.76;37.64
77631;BME280;66798;47.370;8.552;2023-08-17T12:24:40;96782.31;;;31.67;38.20
77631;BME280;66798;47.370;8.552;2023-08-17T12:27:06;96787.22;;;31.42;38.39
77631;BME280;66798;47.370;8.552;2023-08-17T12:29:32;96804.31;;;31.35;39.27
77631;BME280;66798;47.370;8.552;2023-08-17T12:31:58;96801.63;;;31.28;39.35
77631;BME280;66798;47.370;8.552;2023-08-17T12:34:24;96798.22;;;31.13;38.54
77631;BME280;66798;47.370;8.552;2023-08-17T12:36:50;96796.25;;;31.21;38.53
77631;BME280;66798;47.370;8.552;2023-08-17T12:39:16;96800.47;;;31.25;38.06
77631;BME280;66798;47.370;8.552;2023-08-17T12:41:41;96802.06;;;31.23;37.49
77631;BME280;66798;47.370;8.552;2023-08-17T12:44:09;96800.22;;;31.02;37.12
77631;BME280;66798;47.370;8.552;2023-08-17T12:46:37;96805.66;;;30.98;37.48
77631;BME280;66798;47.370;8.552;2023-08-17T12:49:02;96799.50;;;30.90;37.82
77631;BME280;66798;47.370;8.552;2023-08-17T12:51:28;96801.84;;;30.92;37.90
77631;BME280;66798;47.370;8.552;2023-08-17T12:53:54;96803.03;;;30.84;37.46
77631;BME280;66798;47.370;8.552;2023-08-17T12:56:19;96805.34;;;30.85;37.12
77631;BME280;66798;47.370;8.552;2023-08-17T12:58:45;96801.84;;;30.81;36.77
77631;BME280;66798;47.370;8.552;2023-08-17T13:01:10;96800.66;;;30.97;37.59
77631;BME280;66798;47.370;8.552;2023-08-17T13:03:36;96792.16;;;30.77;36.78
77631;BME280;66798;47.370;8.552;2023-08-17T13:06:01;96804.97;;;30.87;36.93
77631;BME280;66798;47.370;8.552;2023-08-17T13:08:28;96795.69;;;30.66;37.17